Time;durP1;ratioP1;P1;durP2;ratioP2;P2;SDS_P1;SDS_P2;PMS_P1;PMS_P2;Temp;Humidity;BMP_temperature;BMP_pressure;BME280_temperature;BME280_humidity;BME280_pressure;Samples;Min_cycle;Max_cycle;Signal;HPM_P1;HPM_P2
2022/04/01 11:59:36;;;;;;;5.10;4.03;;;2.50;15.40;;;;;;5066098;22;20171;-76
2022/04/01 12:02:08;;;;;;;4.27;3.80;;;2.50;1.00;;;;;;5051547;28;20215;-75
2022/04/01 12:04:35;;;;;;;5.63;4.30;;;2.50;99.90;;;;;;5071922;28;20194;-74
2022/04/01 12:09:59;;;;;;;7.37;4.20;;;2.50;1.00;;;;;;5073480;28;20299;-76
2022/04/01 12:12:25;;;;;;;5.83;4.43;;;2.50;99.90;;;;;;5072815;28;20212;-76
2022/04/01 12:14:54;;;;;;;5.17;4.27;;;2.40;99.90;;;;;;5054791;28;20174;-76
2022/04/01 12:17:20;;;;;;;4.73;3.80;;;2.50;99.90;;;;;;5072786;28;20183;-76
2022/04/01 12:19:46;;;;;;;3.90;3.60;;;2.50;99.90;;;;;;5072611;28;20605;-76
2022/04/01 12:22:11;;;;;;;5.73;4.67;;;2.40;99.90;;;;;;5054926;28;20210;-75
2022/04/01 12:24:38;;;;;;;5.47;4.83;;;2.40;1.00;;;;;;5072525;28;20207;-75
2022/04/01 12:27:06;;;;;;;5.57;4.70;;;2.50;1.00;;;;;;5054645;28;20183;-75
2022/04/01 12:29:33;;;;;;;5.27;4.73;;;2.50;1.00;;;;;;5072626;28;20304;-76
2022/04/01 12:32:05;;;;;;;5.93;4.80;;;2.50;1.00;;;;;;5072981;28;20252;-76
2022/04/01 12:34:31;;;;;;;7.73;4.73;;;2.50;1.00;;;;;;5076335;28;20223;-75
2022/04/01 12:37:02;;;;;;;7.40;4.73;;;2.50;1.00;;;;;;5058240;28;20206;-76
2022/04/01 12:39:33;;;;;;;7.50;5.67;;;2.50;1.00;;;;;;5076105;28;20159;-75
2022/04/01 12:42:10;;;;;;;6.47;4.87;;;2.60;1.00;;;;;;5076088;28;20245;-76
2022/04/01 12:44:39;;;;;;;5.37;4.60;;;2.60;1.00;;;;;;5076438;28;20774;-76
2022/04/01 12:47:06;;;;;;;4.80;4.30;;;2.70;1.00;;;;;;5058779;28;20186;-76
2022/04/01 12:49:33;;;;;;;7.03;4.80;;;2.60;1.00;;;;;;5076335;28;20190;-76
2022/04/01 12:52:04;;;;;;;5.23;4.73;;;2.60;1.00;;;;;;5076851;28;20195;-76
2022/04/01 12:54:39;;;;;;;6.93;4.97;;;2.60;55.50;;;;;;5060048;28;20578;-76
2022/04/01 12:57:11;;;;;;;4.93;4.30;;;2.50;1.00;;;;;;5079540;28;20171;-76
2022/04/01 12:59:40;;;;;;;5.73;4.70;;;2.60;90.20;;;;;;5057179;28;20630;-77
2022/04/01 13:02:14;;;;;;;5.77;4.87;;;2.50;13.90;;;;;;5038029;28;20179;-76
2022/04/01 13:04:42;;;;;;;5.47;4.73;;;2.50;99.90;;;;;;5056710;28;20258;-77
2022/04/01 13:07:13;;;;;;;6.17;4.60;;;2.50;99.90;;;;;;5056544;28;20179;-77
2022/04/01 13:09:43;;;;;;;6.20;4.47;;;2.50;99.90;;;;;;5056788;28;20171;-77
2022/04/01 13:12:09;;;;;;;5.10;4.60;;;2.50;99.90;;;;;;5038277;28;20234;-77
2022/04/01 13:14:35;;;;;;;6.20;4.77;;;2.40;1.00;;;;;;5045393;28;20207;-76
2022/04/01 13:17:08;;;;;;;6.80;4.80;;;2.50;51.70;;;;;;5056139;28;20170;-77
2022/04/01 13:19:35;;;;;;;8.53;4.63;;;2.50;99.90;;;;;;5038085;28;20176;-77
2022/04/01 13:22:03;;;;;;;7.27;4.90;;;2.50;99.90;;;;;;5055627;28;20176;-76
2022/04/01 13:24:43;;;;;;;6.93;4.87;;;2.50;99.90;;;;;;5055464;28;20192;-76
2022/04/01 13:27:12;;;;;;;6.57;4.60;;;2.40;99.90;;;;;;5055513;28;20182;-76
2022/04/01 13:29:38;;;;;;;7.07;5.00;;;2.50;99.90;;;;;;5038487;28;20685;-76
2022/04/01 13:32:05;;;;;;;5.33;4.30;;;2.50;99.90;;;;;;5055492;28;20210;-76
2022/04/01 13:34:32;;;;;;;5.23;4.20;;;2.50;68.50;;;;;;5037425;28;20286;-77
2022/04/01 13:36:58;;;;;;;4.67;4.03;;;2.50;95.20;;;;;;5055715;28;20179;-76
2022/04/01 13:39:24;;;;;;;6.77;4.70;;;2.40;1.00;;;;;;5053722;28;20191;-76
2022/04/01 13:45:12;;;;;;;5.60;4.33;;;2.50;99.90;;;;;;5055437;28;20163;-78
2022/04/01 13:47:37;;;;;;;4.30;3.80;;;2.60;99.90;;;;;;5057355;28;20171;-79
2022/04/01 13:50:05;;;;;;;6.17;4.47;;;2.60;1.00;;;;;;5057742;28;20246;-79
2022/04/01 13:52:30;;;;;;;5.87;4.00;;;2.60;1.00;;;;;;5058524;28;20289;-79
2022/04/01 13:54:56;;;;;;;5.40;3.90;;;2.60;1.00;;;;;;5058089;28;20180;-79
2022/04/01 13:57:22;;;;;;;4.47;3.50;;;2.70;1.00;;;;;;5057577;28;20183;-79
2022/04/01 13:59:48;;;;;;;3.90;3.60;;;2.70;1.00;;;;;;5061196;28;20183;-79
2022/04/01 14:02:15;;;;;;;6.67;4.20;;;2.80;1.00;;;;;;5077796;28;20169;-78
2022/04/01 14:04:41;;;;;;;4.83;4.33;;;2.70;1.00;;;;;;5075415;28;20724;-76
2022/04/01 14:07:08;;;;;;;4.60;4.00;;;2.70;1.00;;;;;;5056830;28;20646;-77
2022/04/01 14:09:39;;;;;;;6.17;4.13;;;2.70;1.00;;;;;;5056895;28;20189;-77
2022/04/01 14:12:05;;;;;;;7.23;4.90;;;2.70;1.00;;;;;;5074690;28;20229;-76
2022/04/01 14:14:31;;;;;;;7.23;4.93;;;2.80;1.00;;;;;;5074415;28;20198;-76
2022/04/01 14:16:57;;;;;;;5.17;3.80;;;2.80;1.00;;;;;;5074357;28;20183;-77
2022/04/01 14:19:22;;;;;;;6.30;4.30;;;2.90;1.00;;;;;;5074597;28;20199;-77
2022/04/01 14:21:48;;;;;;;8.83;4.57;;;2.90;1.00;;;;;;5056526;28;20183;-77
2022/04/01 14:24:14;;;;;;;8.33;5.37;;;2.90;1.00;;;;;;5074473;28;20206;-77
2022/04/01 14:26:40;;;;;;;10.70;4.87;;;2.90;1.00;;;;;;5074708;28;20194;-77
2022/04/01 14:32:00;;;;;;;6.30;5.17;;;3.00;1.00;;;;;;5078296;28;20213;-77
2022/04/01 14:34:30;;;;;;;6.53;5.83;;;3.00;1.00;;;;;;5080251;28;20758;-76
2022/04/01 14:36:57;;;;;;;7.50;5.13;;;3.00;1.00;;;;;;5081117;28;20171;-77
2022/04/01 14:39:26;;;;;;;7.77;5.10;;;2.90;1.00;;;;;;5058947;28;20186;-77
2022/04/01 14:41:52;;;;;;;7.53;6.47;;;2.90;51.60;;;;;;5062680;23;20235;-76
2022/04/01 14:44:19;;;;;;;9.47;6.40;;;2.80;99.90;;;;;;5056347;28;20171;-76
2022/04/01 14:46:46;;;;;;;6.67;5.97;;;2.80;99.90;;;;;;5038085;28;20178;-76
2022/04/01 14:49:11;;;;;;;6.50;5.73;;;2.80;99.90;;;;;;5055605;28;20263;-77
2022/04/01 14:51:37;;;;;;;6.77;6.03;;;2.70;99.90;;;;;;5037293;28;20274;-76
2022/04/01 14:54:03;;;;;;;8.10;6.00;;;2.70;99.90;;;;;;5040009;28;20190;-76
2022/04/01 14:56:29;;;;;;;8.57;7.27;;;2.80;99.90;;;;;;5056039;28;20179;-76
2022/04/01 14:58:56;;;;;;;7.40;6.40;;;2.70;99.90;;;;;;5057385;28;20183;-77
2022/04/01 15:01:21;;;;;;;9.27;6.27;;;2.70;99.90;;;;;;5039233;28;20202;-76
2022/04/01 15:03:47;;;;;;;7.40;6.60;;;2.60;99.90;;;;;;5039908;28;20183;-78
2022/04/01 15:06:12;;;;;;;9.00;6.80;;;2.50;99.90;;;;;;5039185;28;20207;-76
2022/04/01 15:08:38;;;;;;;8.33;6.47;;;2.50;99.90;;;;;;5039970;28;20210;-76
2022/04/01 15:11:03;;;;;;;8.03;6.93;;;2.50;99.90;;;;;;5039842;28;20233;-77
2022/04/01 15:13:29;;;;;;;7.77;6.23;;;2.50;99.90;;;;;;5039933;28;20271;-76
2022/04/01 15:15:55;;;;;;;7.60;6.50;;;2.50;99.90;;;;;;5039474;28;20184;-73
2022/04/01 15:18:21;;;;;;;9.80;6.60;;;2.40;99.90;;;;;;5058018;28;20180;-76
2022/04/01 15:20:46;;;;;;;8.47;6.67;;;2.40;99.90;;;;;;5059761;28;20812;-77
2022/04/01 15:23:12;;;;;;;7.17;6.47;;;2.30;99.90;;;;;;5055711;28;20279;-79
2022/04/01 15:25:37;;;;;;;8.30;7.00;;;2.30;99.90;;;;;;5056087;28;20184;-78
2022/04/01 15:28:04;;;;;;;8.57;7.50;;;2.30;99.90;;;;;;5055592;28;20548;-78
2022/04/01 15:30:30;;;;;;;10.87;7.77;;;2.40;99.90;;;;;;5054212;28;20261;-74
2022/04/01 15:32:56;;;;;;;8.87;7.03;;;2.40;99.90;;;;;;5053432;28;20214;-78
2022/04/01 15:35:22;;;;;;;9.07;7.00;;;2.30;99.90;;;;;;5054004;28;20175;-78
2022/04/01 15:38:04;;;;;;;8.63;6.87;;;2.40;99.90;;;;;;5038418;28;20271;-79
2022/04/01 15:40:33;;;;;;;8.60;7.70;;;2.30;99.90;;;;;;5043395;28;20233;-79
2022/04/01 15:42:59;;;;;;;7.37;6.67;;;2.30;99.90;;;;;;5061526;28;20176;-77
2022/04/01 15:45:33;;;;;;;11.30;7.10;;;2.30;99.90;;;;;;5043800;28;20184;-78
2022/04/01 15:48:00;;;;;;;7.47;6.27;;;2.30;99.90;;;;;;5061309;28;20168;-78
2022/04/01 15:50:28;;;;;;;9.23;7.13;;;2.30;99.90;;;;;;5039663;28;20226;-75
2022/04/01 15:52:54;;;;;;;9.60;7.40;;;2.30;99.90;;;;;;5053720;28;20576;-75
2022/04/01 15:55:21;;;;;;;9.57;7.47;;;2.30;99.90;;;;;;5055336;28;20254;-78
2022/04/01 15:57:48;;;;;;;9.27;7.60;;;2.30;99.90;;;;;;5039405;28;20220;-78
2022/04/01 16:00:14;;;;;;;10.43;7.73;;;2.30;99.90;;;;;;5038861;28;20188;-78
2022/04/01 16:02:47;;;;;;;9.77;7.90;;;2.30;99.90;;;;;;5057150;28;20257;-78
2022/04/01 16:05:14;;;;;;;10.47;8.23;;;2.30;99.90;;;;;;5054759;28;20263;-77
2022/04/01 16:07:40;;;;;;;11.27;7.93;;;2.30;99.90;;;;;;5040224;28;20179;-77
2022/04/01 16:10:12;;;;;;;9.47;8.47;;;2.30;99.90;;;;;;5059555;28;20241;-77
2022/04/01 16:12:42;;;;;;;8.70;7.30;;;2.20;99.90;;;;;;5041904;28;20245;-78
2022/04/01 16:15:11;;;;;;;9.53;7.57;;;2.20;99.90;;;;;;5059543;28;20163;-78
2022/04/01 16:17:37;;;;;;;10.83;7.93;;;2.20;99.90;;;;;;5059424;28;20164;-77
2022/04/01 16:23:27;;;;;;;8.43;7.47;;;2.20;99.90;;;;;;5058543;28;20242;-78
2022/04/01 16:25:54;;;;;;;12.63;8.77;;;2.20;99.90;;;;;;5042604;28;20203;-77
2022/04/01 16:28:21;;;;;;;8.67;7.57;;;2.20;99.90;;;;;;5042005;28;20180;-77
2022/04/01 16:30:47;;;;;;;10.63;8.80;;;2.20;99.90;;;;;;5057527;28;20203;-78
2022/04/01 16:33:13;;;;;;;9.73;8.53;;;2.30;99.90;;;;;;5041677;28;20703;-77
2022/04/01 16:35:39;;;;;;;11.13;9.43;;;2.20;99.90;;;;;;5059761;28;20190;-78
2022/04/01 16:38:06;;;;;;;11.00;8.60;;;2.30;99.90;;;;;;5042305;28;20646;-77
2022/04/01 16:40:31;;;;;;;13.80;9.73;;;2.30;99.90;;;;;;5060132;28;20222;-77
2022/04/01 16:42:57;;;;;;;9.53;8.17;;;2.30;99.90;;;;;;5059668;28;20555;-78
2022/04/01 16:45:23;;;;;;;9.40;8.30;;;2.20;99.90;;;;;;5058658;28;20607;-78
2022/04/01 16:47:48;;;;;;;10.27;9.10;;;2.30;99.90;;;;;;5047676;28;20191;-77
2022/04/01 16:50:15;;;;;;;8.57;7.57;;;2.30;99.90;;;;;;5058283;28;20195;-77
2022/04/01 16:52:41;;;;;;;8.40;6.87;;;2.30;99.90;;;;;;5057556;28;20276;-77
2022/04/01 16:55:07;;;;;;;9.73;6.90;;;2.20;99.90;;;;;;5056779;28;20638;-77
2022/04/01 16:57:33;;;;;;;7.73;6.83;;;2.20;99.90;;;;;;5056401;28;20655;-76
2022/04/01 16:59:59;;;;;;;8.97;6.97;;;2.30;99.90;;;;;;5056279;28;20273;-76
2022/04/01 17:02:25;;;;;;;8.13;7.20;;;2.20;99.90;;;;;;5038177;28;20208;-76
2022/04/01 17:04:54;;;;;;;6.93;6.23;;;2.20;99.90;;;;;;5057334;28;20192;-77
2022/04/01 17:12:50;;;;;;;10.87;6.80;;;2.00;99.90;;;;;;5056499;28;20198;-76
2022/04/01 17:15:20;;;;;;;7.47;6.33;;;2.00;99.90;;;;;;5056535;28;20207;-77
2022/04/01 17:17:46;;;;;;;7.67;6.80;;;2.00;99.90;;;;;;5038430;28;20184;-76
2022/04/01 17:20:15;;;;;;;7.17;6.33;;;1.90;99.90;;;;;;5037277;28;20180;-77
2022/04/01 17:22:41;;;;;;;9.47;5.90;;;2.00;99.90;;;;;;5038556;28;20215;-76
2022/04/01 17:25:11;;;;;;;8.40;5.13;;;1.90;99.90;;;;;;5038801;28;20654;-76
2022/04/01 17:27:39;;;;;;;7.87;6.13;;;1.90;99.90;;;;;;5056320;28;20635;-76
2022/04/01 17:30:06;;;;;;;6.70;5.37;;;1.90;99.90;;;;;;5038289;28;20194;-76
2022/04/01 17:32:38;;;;;;;6.87;5.87;;;1.80;99.90;;;;;;5037566;28;20272;-76
2022/04/01 17:35:05;;;;;;;8.03;5.37;;;1.80;99.90;;;;;;5038160;28;20171;-75
2022/04/01 17:37:31;;;;;;;7.47;5.30;;;1.80;99.90;;;;;;5037956;28;20237;-75
2022/04/01 17:39:57;;;;;;;7.37;5.93;;;1.80;99.90;;;;;;5055443;28;20277;-75
2022/04/01 17:42:26;;;;;;;7.67;5.43;;;1.80;99.90;;;;;;5055383;28;20219;-76
2022/04/01 17:44:54;;;;;;;8.43;5.57;;;1.80;99.90;;;;;;5038334;28;20195;-77
2022/04/01 17:47:20;;;;;;;6.17;5.57;;;1.70;99.90;;;;;;5038697;28;20564;-76
2022/04/01 17:49:47;;;;;;;7.43;5.30;;;1.70;99.90;;;;;;5056766;28;20647;-76
2022/04/01 17:52:15;;;;;;;7.63;5.60;;;1.70;99.90;;;;;;5039792;28;20226;-76
2022/04/01 17:54:42;;;;;;;6.80;5.37;;;1.60;99.90;;;;;;5040194;28;20198;-76
2022/04/01 17:57:08;;;;;;;6.53;5.60;;;1.60;99.90;;;;;;5039671;28;20559;-77
2022/04/01 17:59:42;;;;;;;6.70;5.93;;;1.60;99.90;;;;;;5058352;28;20178;-76
2022/04/01 18:02:09;;;;;;;6.70;5.73;;;1.50;99.90;;;;;;5057622;28;20217;-77
2022/04/01 18:04:38;;;;;;;7.60;6.10;;;1.50;99.90;;;;;;5039667;28;20194;-77
2022/04/01 18:07:05;;;;;;;7.23;6.30;;;1.50;99.90;;;;;;5056587;28;20184;-78
2022/04/01 18:09:35;;;;;;;8.97;5.70;;;1.50;99.90;;;;;;5056555;28;20187;-76
2022/04/01 18:12:06;;;;;;;8.23;5.83;;;1.50;99.90;;;;;;5048040;28;20237;-77
2022/04/01 18:14:33;;;;;;;6.93;6.23;;;1.50;99.90;;;;;;5056391;28;20284;-76
2022/04/01 18:17:00;;;;;;;8.80;5.93;;;1.50;99.90;;;;;;5039077;28;20686;-77
2022/04/01 18:19:26;;;;;;;7.30;6.47;;;1.50;99.90;;;;;;5038294;28;20188;-77
2022/04/01 18:21:52;;;;;;;7.20;6.43;;;1.50;99.90;;;;;;5038874;28;20686;-76
2022/04/01 18:24:17;;;;;;;8.63;7.30;;;1.50;99.90;;;;;;5057084;28;20195;-77
2022/04/01 18:26:53;;;;;;;9.23;6.87;;;1.50;99.90;;;;;;5057423;28;20180;-74
2022/04/01 18:29:34;;;;;;;7.53;6.73;;;1.50;99.90;;;;;;5039395;28;20273;-76
2022/04/01 18:32:24;;;;;;;9.00;6.87;;;1.50;99.90;;;;;;5039064;28;20583;-77
2022/04/01 18:34:50;;;;;;;8.07;6.83;;;1.50;99.90;;;;;;5057451;28;20250;-76
2022/04/01 18:37:20;;;;;;;8.87;7.07;;;1.50;99.90;;;;;;5039766;28;20249;-76
2022/04/01 18:39:47;;;;;;;10.13;8.03;;;1.50;99.90;;;;;;5038390;28;20191;-77
2022/04/01 18:42:13;;;;;;;8.63;7.83;;;1.50;99.90;;;;;;5055458;28;20226;-75
2022/04/01 18:44:40;;;;;;;8.80;7.13;;;1.40;99.90;;;;;;5039257;28;20301;-76
2022/04/01 18:47:09;;;;;;;10.03;7.50;;;1.40;99.90;;;;;;5055778;28;20268;-76
2022/04/01 18:49:35;;;;;;;9.73;6.47;;;1.50;99.90;;;;;;5036901;28;20289;-76
2022/04/01 18:52:01;;;;;;;10.73;7.00;;;1.50;99.90;;;;;;5054615;28;20589;-76
2022/04/01 18:54:27;;;;;;;9.13;6.70;;;1.50;99.90;;;;;;5037439;28;20191;-76
2022/04/01 19:00:17;;;;;;;10.17;6.53;;;1.40;99.90;;;;;;5054643;28;20258;-76
2022/04/01 19:02:56;;;;;;;8.17;6.83;;;1.50;99.90;;;;;;5036394;28;20218;-77
2022/04/01 19:05:31;;;;;;;9.23;7.13;;;1.40;99.90;;;;;;5054617;28;20623;-76
2022/04/01 19:08:15;;;;;;;9.57;7.17;;;1.40;99.90;;;;;;5036919;28;20190;-76
2022/04/01 19:10:59;;;;;;;7.43;6.50;;;1.40;99.90;;;;;;5054711;28;20222;-75
2022/04/01 19:13:25;;;;;;;7.87;6.07;;;1.40;99.90;;;;;;5053726;28;20254;-80
2022/04/01 19:15:52;;;;;;;9.30;6.47;;;1.40;99.90;;;;;;5035650;28;20184;-77
2022/04/01 19:18:19;;;;;;;10.83;6.27;;;1.50;99.90;;;;;;5052974;28;20249;-76
2022/04/01 19:20:48;;;;;;;10.07;6.40;;;1.50;99.90;;;;;;5035837;28;20272;-80
2022/04/01 19:23:16;;;;;;;9.47;6.50;;;1.50;99.90;;;;;;5035390;28;20196;-76
2022/04/01 19:25:42;;;;;;;6.87;5.80;;;1.50;99.90;;;;;;5035768;28;20187;-77
2022/04/01 19:28:10;;;;;;;9.80;5.90;;;1.50;99.90;;;;;;5036165;28;20392;-78
2022/04/01 19:30:36;;;;;;;9.67;6.00;;;1.50;99.90;;;;;;5035950;28;20222;-78
2022/04/01 19:33:04;;;;;;;7.97;5.43;;;1.50;99.90;;;;;;5035930;28;20218;-78
2022/04/01 19:35:31;;;;;;;6.23;5.60;;;1.50;99.90;;;;;;5056077;28;20218;-79
2022/04/01 19:37:58;;;;;;;8.53;6.20;;;1.50;99.90;;;;;;5054203;28;20677;-78
2022/04/01 19:40:24;;;;;;;8.67;6.33;;;1.50;99.90;;;;;;5053600;28;20190;-76
2022/04/01 19:42:50;;;;;;;9.47;6.43;;;1.50;99.90;;;;;;5036046;28;20207;-79
2022/04/01 19:45:17;;;;;;;9.90;6.93;;;1.50;99.90;;;;;;5053445;28;20663;-77
2022/04/01 19:47:43;;;;;;;10.13;6.27;;;1.50;99.90;;;;;;5052952;28;20176;-76
2022/04/01 19:50:09;;;;;;;9.27;6.47;;;1.50;99.90;;;;;;5053760;28;20210;-76
2022/04/01 19:52:38;;;;;;;12.43;6.17;;;1.50;99.90;;;;;;5052916;28;20210;-77
2022/04/01 19:55:05;;;;;;;7.83;6.87;;;1.50;99.90;;;;;;5052878;28;20187;-78
2022/04/01 19:57:31;;;;;;;11.63;6.43;;;1.60;99.90;;;;;;5053792;28;20258;-77
2022/04/01 19:59:56;;;;;;;8.17;6.70;;;1.50;99.90;;;;;;5035519;28;20661;-77
2022/04/01 20:02:22;;;;;;;7.70;6.03;;;1.60;99.90;;;;;;5035861;28;20245;-77
2022/04/01 20:04:48;;;;;;;9.63;5.90;;;1.50;99.90;;;;;;5040195;28;20183;-78
2022/04/01 20:07:13;;;;;;;8.03;6.53;;;1.60;99.90;;;;;;5070299;28;20692;-79
2022/04/01 20:09:39;;;;;;;8.23;6.33;;;1.60;99.90;;;;;;5068619;28;20210;-78
2022/04/01 20:12:05;;;;;;;8.10;6.20;;;1.60;99.90;;;;;;5060302;28;20218;-78
2022/04/01 20:14:30;;;;;;;8.70;5.90;;;1.60;99.90;;;;;;5060727;28;20179;-77
2022/04/01 20:16:56;;;;;;;8.80;6.30;;;1.60;99.90;;;;;;5058457;28;21234;-77
2022/04/01 20:19:21;;;;;;;8.60;6.10;;;1.60;99.90;;;;;;5045774;28;20184;-78
2022/04/01 20:21:47;;;;;;;9.70;6.20;;;1.60;99.90;;;;;;5061816;28;20225;-77
2022/04/01 20:24:13;;;;;;;9.03;6.40;;;1.60;99.90;;;;;;5062026;28;20198;-78
2022/04/01 20:26:38;;;;;;;10.60;6.13;;;1.60;99.90;;;;;;5044190;28;20184;-77
2022/04/01 20:29:04;;;;;;;8.60;6.70;;;1.60;99.90;;;;;;5053337;28;20551;-78
2022/04/01 20:31:30;;;;;;;9.17;7.07;;;1.60;99.90;;;;;;5062451;28;20208;-78
2022/04/01 20:33:55;;;;;;;8.30;6.50;;;1.60;99.90;;;;;;5053831;28;20294;-77
2022/04/01 20:36:21;;;;;;;10.97;5.83;;;1.60;99.90;;;;;;5067671;28;20190;-78
2022/04/01 20:38:48;;;;;;;10.80;6.77;;;1.60;99.90;;;;;;5070534;28;20178;-77
2022/04/01 20:41:14;;;;;;;13.00;7.47;;;1.60;99.90;;;;;;5060661;22;20222;-77
2022/04/01 20:43:40;;;;;;;8.93;6.30;;;1.60;99.90;;;;;;5061943;28;20196;-77
2022/04/01 20:46:06;;;;;;;10.53;6.20;;;1.60;99.90;;;;;;5052483;28;20190;-78
2022/04/01 20:48:31;;;;;;;8.97;5.93;;;1.60;99.90;;;;;;5067757;28;20190;-79
2022/04/01 20:50:57;;;;;;;8.57;6.60;;;1.60;99.90;;;;;;5057461;28;20320;-78
2022/04/01 20:53:23;;;;;;;12.23;6.20;;;1.90;99.90;;;;;;5053429;28;20206;-76
2022/04/01 20:55:49;;;;;;;14.07;6.83;;;1.60;99.90;;;;;;5054638;28;20643;-78
2022/04/01 20:58:15;;;;;;;10.23;7.17;;;1.60;99.90;;;;;;5051680;28;20199;-77
2022/04/01 21:00:40;;;;;;;14.63;6.77;;;1.60;99.90;;;;;;5037544;28;20269;-77
2022/04/01 21:03:06;;;;;;;10.50;6.60;;;1.70;99.90;;;;;;5052117;28;20219;-78
2022/04/01 21:05:32;;;;;;;10.60;6.43;;;1.60;99.90;;;;;;5053408;28;20271;-78
2022/04/01 21:07:57;;;;;;;10.53;6.70;;;1.60;99.90;;;;;;5054823;28;20214;-77
2022/04/01 21:10:23;;;;;;;8.33;6.37;;;1.60;99.90;;;;;;5055251;28;20658;-78
2022/04/01 21:12:49;;;;;;;11.23;7.40;;;1.60;99.90;;;;;;5051427;28;20207;-77
2022/04/01 21:15:16;;;;;;;10.67;5.90;;;1.60;99.90;;;;;;5052453;28;20181;-79
2022/04/01 21:17:41;;;;;;;8.37;6.37;;;1.60;99.90;;;;;;5053809;28;20179;-78
2022/04/01 21:20:09;;;;;;;9.30;6.17;;;1.60;99.90;;;;;;5035539;28;20178;-79
2022/04/01 21:22:36;;;;;;;7.17;6.20;;;1.60;99.90;;;;;;5040753;28;20703;-77
2022/04/01 21:25:02;;;;;;;12.33;6.30;;;1.60;99.90;;;;;;5033155;28;20269;-78
2022/04/01 21:27:28;;;;;;;7.67;6.30;;;1.60;99.90;;;;;;5033690;28;20219;-78
2022/04/01 21:29:57;;;;;;;7.60;6.43;;;1.60;99.90;;;;;;5016965;28;20241;-78
2022/04/01 21:32:25;;;;;;;9.77;5.73;;;1.60;99.90;;;;;;5044805;28;20713;-78
2022/04/01 21:34:51;;;;;;;8.20;5.90;;;1.60;99.90;;;;;;5037502;28;20187;-77
2022/04/01 21:37:27;;;;;;;11.53;6.07;;;1.60;99.90;;;;;;5037653;28;20182;-78
2022/04/01 21:40:04;;;;;;;7.50;5.87;;;1.60;99.90;;;;;;5055090;28;20635;-78
2022/04/01 21:42:30;;;;;;;12.57;7.37;;;1.60;99.90;;;;;;5054859;28;20231;-78
2022/04/01 21:44:57;;;;;;;12.07;6.27;;;1.60;99.90;;;;;;5055453;28;20191;-78
2022/04/01 21:47:23;;;;;;;10.77;6.60;;;1.60;99.90;;;;;;5037275;28;20187;-78
2022/04/01 21:49:49;;;;;;;8.60;6.13;;;1.60;99.90;;;;;;5055227;28;20182;-78
2022/04/01 21:52:15;;;;;;;8.00;6.17;;;1.60;99.90;;;;;;5049229;28;20761;-77
2022/04/01 21:54:42;;;;;;;8.63;5.97;;;1.50;99.90;;;;;;5036940;28;20222;-78
2022/04/01 21:57:08;;;;;;;9.03;6.13;;;1.50;99.90;;;;;;5054738;28;20245;-78
2022/04/01 21:59:34;;;;;;;7.70;6.73;;;1.50;99.90;;;;;;5028840;28;20184;-77
2022/04/01 22:02:05;;;;;;;8.70;5.60;;;1.50;99.90;;;;;;5017145;28;20207;-77
2022/04/01 22:04:32;;;;;;;8.27;5.97;;;1.50;99.90;;;;;;5035347;28;20572;-77
2022/04/01 22:07:00;;;;;;;9.47;6.37;;;1.50;99.90;;;;;;5034895;28;20177;-78
2022/04/01 22:09:26;;;;;;;7.17;6.13;;;1.50;99.90;;;;;;5042281;28;20182;-78
2022/04/01 22:11:52;;;;;;;9.33;6.13;;;1.50;99.90;;;;;;5056327;28;20188;-77
2022/04/01 22:14:19;;;;;;;9.43;5.73;;;1.50;99.90;;;;;;5056417;28;20183;-77
2022/04/01 22:16:46;;;;;;;9.07;6.10;;;1.50;99.90;;;;;;5055194;28;20544;-77
2022/04/01 22:19:12;;;;;;;11.63;6.57;;;1.40;99.90;;;;;;5031879;28;20191;-77
2022/04/01 22:21:39;;;;;;;11.77;5.53;;;1.50;99.90;;;;;;5034394;28;20194;-78
2022/04/01 22:24:05;;;;;;;7.33;5.43;;;1.40;99.90;;;;;;5016584;28;20659;-77
2022/04/01 22:26:32;;;;;;;8.07;5.53;;;1.40;99.90;;;;;;5034114;28;20730;-77
2022/04/01 22:28:58;;;;;;;8.03;5.40;;;1.40;99.90;;;;;;5018261;28;20693;-77
2022/04/01 22:31:24;;;;;;;7.57;5.50;;;1.40;99.90;;;;;;5054185;28;20203;-77
2022/04/01 22:33:52;;;;;;;7.83;5.57;;;1.40;99.90;;;;;;5036222;28;20294;-77
2022/04/01 22:36:18;;;;;;;7.33;5.70;;;1.40;99.90;;;;;;5036636;28;20213;-77
2022/04/01 22:38:45;;;;;;;7.73;5.83;;;1.40;99.90;;;;;;5054088;28;20266;-78
2022/04/01 22:41:11;;;;;;;7.60;5.43;;;1.40;99.90;;;;;;5020271;28;20186;-77
2022/04/01 22:43:39;;;;;;;8.20;5.70;;;1.40;99.90;;;;;;5054114;28;20593;-77
2022/04/01 22:46:05;;;;;;;7.40;5.40;;;1.40;99.90;;;;;;5054053;28;20253;-77
2022/04/01 22:48:32;;;;;;;7.50;5.07;;;1.40;99.90;;;;;;5053896;28;20222;-77
2022/04/01 22:50:57;;;;;;;9.37;5.17;;;1.40;99.90;;;;;;5053671;28;20194;-77
2022/04/01 22:53:24;;;;;;;9.23;5.80;;;1.40;99.90;;;;;;5054350;28;20199;-77
2022/04/01 22:55:50;;;;;;;9.43;5.60;;;1.40;99.90;;;;;;5053853;28;20216;-77
2022/04/01 22:58:15;;;;;;;9.80;6.13;;;1.40;99.90;;;;;;5054211;28;20179;-77
2022/04/01 23:00:41;;;;;;;8.37;5.37;;;1.40;99.90;;;;;;5053289;28;20193;-77
2022/04/01 23:03:08;;;;;;;7.93;5.33;;;1.40;99.90;;;;;;5054305;28;20198;-77
2022/04/01 23:05:33;;;;;;;7.97;5.33;;;1.40;99.90;;;;;;5054566;28;20187;-77
2022/04/01 23:08:02;;;;;;;6.80;4.87;;;1.40;99.90;;;;;;5054082;28;20678;-77
2022/04/01 23:10:29;;;;;;;8.30;4.70;;;1.40;99.90;;;;;;5049267;28;20195;-77
2022/04/01 23:12:55;;;;;;;7.23;4.80;;;1.40;99.90;;;;;;5035690;28;20214;-77
2022/04/01 23:15:21;;;;;;;7.40;5.03;;;1.40;99.90;;;;;;5053896;28;20251;-77
2022/04/01 23:17:48;;;;;;;5.33;4.63;;;1.40;99.90;;;;;;5052751;28;20181;-77
2022/04/01 23:20:14;;;;;;;11.27;5.60;;;1.40;99.90;;;;;;5053133;28;20658;-77
2022/04/01 23:22:40;;;;;;;10.77;5.27;;;1.40;99.90;;;;;;5035095;28;20203;-77
2022/04/01 23:25:07;;;;;;;5.87;4.47;;;1.40;99.90;;;;;;5035968;28;20190;-76
2022/04/01 23:27:33;;;;;;;6.97;5.37;;;1.40;99.90;;;;;;5053890;28;20240;-77
2022/04/01 23:29:59;;;;;;;6.70;4.83;;;1.40;99.90;;;;;;5053464;28;20257;-78
2022/04/01 23:32:25;;;;;;;10.63;5.27;;;1.40;99.90;;;;;;5043102;28;20199;-77
2022/04/01 23:34:52;;;;;;;9.10;4.87;;;1.40;99.90;;;;;;5015923;28;20194;-77
2022/04/01 23:37:18;;;;;;;8.93;5.70;;;1.40;99.90;;;;;;5033557;28;20273;-77
2022/04/01 23:39:44;;;;;;;7.50;5.00;;;1.40;99.90;;;;;;5048769;28;20271;-77
2022/04/01 23:42:10;;;;;;;9.43;5.13;;;1.40;99.90;;;;;;5033320;28;20708;-77
2022/04/01 23:44:36;;;;;;;6.90;5.17;;;1.40;99.90;;;;;;5015511;28;20194;-77
2022/04/01 23:47:01;;;;;;;12.63;5.70;;;1.40;99.90;;;;;;5033161;28;20674;-77
2022/04/01 23:49:27;;;;;;;7.73;5.00;;;1.40;99.90;;;;;;5016080;28;20551;-78
2022/04/01 23:51:53;;;;;;;8.17;5.20;;;1.50;99.90;;;;;;5049094;28;20204;-78
2022/04/01 23:54:19;;;;;;;7.47;4.83;;;1.40;99.90;;;;;;5034490;28;20187;-77
2022/04/01 23:56:44;;;;;;;5.80;4.50;;;1.40;99.90;;;;;;5034979;28;20197;-78
2022/04/01 23:59:10;;;;;;;8.53;5.40;;;1.50;99.90;;;;;;5033926;28;20183;-77
